sensor_id;sensor_type;location;lat;lon;timestamp;P1;durP1;ratioP1;P2;durP2;ratioP2
77589;SDS011;66746;51.328;12.332;2023-07-09T00:00:46;5.90;;;4.53;;
77589;SDS011;66746;51.328;12.332;2023-07-09T00:03:12;6.90;;;4.20;;
77589;SDS011;66746;51.328;12.332;2023-07-09T00:05:39;6.93;;;5.32;;
77589;SDS011;66746;51.328;12.332;2023-07-09T00:08:07;9.05;;;4.88;;
77589;SDS011;66746;51.328;12.332;2023-07-09T00:13:14;6.20;;;4.80;;
77589;SDS011;66746;51.328;12.332;2023-07-09T00:15:40;6.65;;;5.13;;
77589;SDS011;66746;51.328;12.332;2023-07-09T00:18:07;6.80;;;5.20;;
77589;SDS011;66746;51.328;12.332;2023-07-09T00:20:34;8.05;;;5.20;;
77589;SDS011;66746;51.328;12.332;2023-07-09T00:23:01;5.45;;;4.95;;
77589;SDS011;66746;51.328;12.332;2023-07-09T00:25:29;5.65;;;4.97;;
77589;SDS011;66746;51.328;12.332;2023-07-09T00:27:55;6.03;;;4.70;;
77589;SDS011;66746;51.328;12.332;2023-07-09T00:30:22;5.85;;;4.50;;
77589;SDS011;66746;51.328;12.332;2023-07-09T00:32:49;6.50;;;4.70;;
77589;SDS011;66746;51.328;12.332;2023-07-09T00:35:16;6.15;;;4.72;;
77589;SDS011;66746;51.328;12.332;2023-07-09T00:37:43;5.55;;;5.03;;
77589;SDS011;66746;51.328;12.332;2023-07-09T00:40:13;6.97;;;5.28;;
77589;SDS011;66746;51.328;12.332;2023-07-09T00:42:44;6.15;;;4.88;;
77589;SDS011;66746;51.328;12.332;2023-07-09T00:45:16;8.55;;;5.10;;
77589;SDS011;66746;51.328;12.332;2023-07-09T00:47:47;7.07;;;5.28;;
77589;SDS011;66746;51.328;12.332;2023-07-09T00:50:21;6.38;;;5.13;;
77589;SDS011;66746;51.328;12.332;2023-07-09T00:52:58;6.38;;;5.38;;
77589;SDS011;66746;51.328;12.332;2023-07-09T00:55:28;6.80;;;5.47;;
77589;SDS011;66746;51.328;12.332;2023-07-09T00:58:01;8.63;;;5.60;;
77589;SDS011;66746;51.328;12.332;2023-07-09T01:00:32;6.82;;;5.97;;
77589;SDS011;66746;51.328;12.332;2023-07-09T01:03:04;6.70;;;5.25;;
77589;SDS011;66746;51.328;12.332;2023-07-09T01:05:32;5.57;;;4.97;;
77589;SDS011;66746;51.328;12.332;2023-07-09T01:07:59;7.65;;;4.65;;
77589;SDS011;66746;51.328;12.332;2023-07-09T01:10:25;6.78;;;4.65;;
77589;SDS011;66746;51.328;12.332;2023-07-09T01:12:52;6.57;;;5.20;;
77589;SDS011;66746;51.328;12.332;2023-07-09T01:15:20;7.68;;;4.70;;
77589;SDS011;66746;51.328;12.332;2023-07-09T01:17:46;7.20;;;5.78;;
77589;SDS011;66746;51.328;12.332;2023-07-09T01:20:17;6.60;;;4.70;;
77589;SDS011;66746;51.328;12.332;2023-07-09T01:22:46;7.63;;;5.05;;
77589;SDS011;66746;51.328;12.332;2023-07-09T01:25:14;7.28;;;5.03;;
77589;SDS011;66746;51.328;12.332;2023-07-09T01:27:42;6.65;;;5.85;;
77589;SDS011;66746;51.328;12.332;2023-07-09T01:30:12;6.32;;;5.25;;
77589;SDS011;66746;51.328;12.332;2023-07-09T01:32:42;5.45;;;4.85;;
77589;SDS011;66746;51.328;12.332;2023-07-09T01:35:09;6.13;;;5.45;;
77589;SDS011;66746;51.328;12.332;2023-07-09T01:37:36;6.10;;;5.03;;
77589;SDS011;66746;51.328;12.332;2023-07-09T01:40:05;6.00;;;5.25;;
77589;SDS011;66746;51.328;12.332;2023-07-09T01:42:54;5.72;;;4.68;;
77589;SDS011;66746;51.328;12.332;2023-07-09T01:45:22;7.80;;;5.28;;
77589;SDS011;66746;51.328;12.332;2023-07-09T01:47:49;10.13;;;5.38;;
77589;SDS011;66746;51.328;12.332;2023-07-09T01:50:16;7.18;;;5.05;;
77589;SDS011;66746;51.328;12.332;2023-07-09T01:52:42;6.78;;;4.72;;
77589;SDS011;66746;51.328;12.332;2023-07-09T01:55:13;6.30;;;5.57;;
77589;SDS011;66746;51.328;12.332;2023-07-09T01:57:40;6.47;;;4.78;;
77589;SDS011;66746;51.328;12.332;2023-07-09T02:00:07;6.40;;;5.40;;
77589;SDS011;66746;51.328;12.332;2023-07-09T02:02:38;8.45;;;5.07;;
77589;SDS011;66746;51.328;12.332;2023-07-09T02:05:06;6.57;;;5.18;;
77589;SDS011;66746;51.328;12.332;2023-07-09T02:07:32;7.30;;;4.90;;
77589;SDS011;66746;51.328;12.332;2023-07-09T02:09:59;7.60;;;5.15;;
77589;SDS011;66746;51.328;12.332;2023-07-09T02:12:27;9.18;;;4.93;;
77589;SDS011;66746;51.328;12.332;2023-07-09T02:14:53;6.10;;;5.38;;
77589;SDS011;66746;51.328;12.332;2023-07-09T02:17:20;7.75;;;5.53;;
77589;SDS011;66746;51.328;12.332;2023-07-09T02:19:46;8.40;;;5.88;;
77589;SDS011;66746;51.328;12.332;2023-07-09T02:22:13;5.75;;;5.07;;
77589;SDS011;66746;51.328;12.332;2023-07-09T02:24:39;6.32;;;5.72;;
77589;SDS011;66746;51.328;12.332;2023-07-09T02:27:07;8.63;;;6.40;;
77589;SDS011;66746;51.328;12.332;2023-07-09T02:29:35;8.38;;;5.07;;
77589;SDS011;66746;51.328;12.332;2023-07-09T02:32:03;8.80;;;5.25;;
77589;SDS011;66746;51.328;12.332;2023-07-09T02:34:30;6.88;;;5.35;;
77589;SDS011;66746;51.328;12.332;2023-07-09T02:36:57;8.13;;;5.90;;
77589;SDS011;66746;51.328;12.332;2023-07-09T02:39:25;9.48;;;6.65;;
77589;SDS011;66746;51.328;12.332;2023-07-09T02:41:52;6.63;;;5.95;;
77589;SDS011;66746;51.328;12.332;2023-07-09T02:44:18;8.65;;;5.60;;
77589;SDS011;66746;51.328;12.332;2023-07-09T02:46:47;8.18;;;5.70;;
77589;SDS011;66746;51.328;12.332;2023-07-09T02:49:13;8.18;;;5.25;;
77589;SDS011;66746;51.328;12.332;2023-07-09T02:51:40;8.45;;;5.90;;
77589;SDS011;66746;51.328;12.332;2023-07-09T02:54:07;7.30;;;4.95;;
77589;SDS011;66746;51.328;12.332;2023-07-09T02:56:34;6.53;;;4.90;;
77589;SDS011;66746;51.328;12.332;2023-07-09T02:59:00;7.07;;;5.40;;
77589;SDS011;66746;51.328;12.332;2023-07-09T03:01:27;8.10;;;5.93;;
77589;SDS011;66746;51.328;12.332;2023-07-09T03:03:55;7.72;;;5.80;;
77589;SDS011;66746;51.328;12.332;2023-07-09T03:06:23;8.10;;;6.65;;
77589;SDS011;66746;51.328;12.332;2023-07-09T03:08:50;9.18;;;7.13;;
77589;SDS011;66746;51.328;12.332;2023-07-09T03:11:18;7.57;;;6.13;;
77589;SDS011;66746;51.328;12.332;2023-07-09T03:13:46;7.93;;;6.18;;
77589;SDS011;66746;51.328;12.332;2023-07-09T03:16:14;7.28;;;5.97;;
77589;SDS011;66746;51.328;12.332;2023-07-09T03:18:40;7.55;;;5.63;;
77589;SDS011;66746;51.328;12.332;2023-07-09T03:21:09;7.28;;;5.45;;
77589;SDS011;66746;51.328;12.332;2023-07-09T03:23:35;7.20;;;6.45;;
77589;SDS011;66746;51.328;12.332;2023-07-09T03:26:02;7.97;;;6.10;;
77589;SDS011;66746;51.328;12.332;2023-07-09T03:28:30;7.00;;;5.55;;
77589;SDS011;66746;51.328;12.332;2023-07-09T03:30:57;8.43;;;7.25;;
77589;SDS011;66746;51.328;12.332;2023-07-09T03:33:24;6.85;;;5.57;;
77589;SDS011;66746;51.328;12.332;2023-07-09T03:35:51;8.90;;;5.68;;
77589;SDS011;66746;51.328;12.332;2023-07-09T03:38:19;8.98;;;5.10;;
77589;SDS011;66746;51.328;12.332;2023-07-09T03:40:49;7.03;;;5.88;;
77589;SDS011;66746;51.328;12.332;2023-07-09T03:43:16;8.15;;;5.70;;
77589;SDS011;66746;51.328;12.332;2023-07-09T03:45:43;6.50;;;5.72;;
77589;SDS011;66746;51.328;12.332;2023-07-09T03:48:11;9.93;;;5.93;;
77589;SDS011;66746;51.328;12.332;2023-07-09T03:50:37;8.45;;;6.00;;
77589;SDS011;66746;51.328;12.332;2023-07-09T03:53:04;6.80;;;5.90;;
77589;SDS011;66746;51.328;12.332;2023-07-09T03:55:32;7.05;;;6.35;;
77589;SDS011;66746;51.328;12.332;2023-07-09T03:57:58;7.85;;;6.10;;
77589;SDS011;66746;51.328;12.332;2023-07-09T04:00:25;7.57;;;5.75;;
77589;SDS011;66746;51.328;12.332;2023-07-09T04:02:52;7.50;;;5.78;;
77589;SDS011;66746;51.328;12.332;2023-07-09T04:05:18;8.68;;;6.75;;
77589;SDS011;66746;51.328;12.332;2023-07-09T04:07:45;7.72;;;5.43;;
77589;SDS011;66746;51.328;12.332;2023-07-09T04:10:11;7.32;;;5.82;;
77589;SDS011;66746;51.328;12.332;2023-07-09T04:12:39;7.63;;;6.15;;
77589;SDS011;66746;51.328;12.332;2023-07-09T04:15:06;10.00;;;5.95;;
77589;SDS011;66746;51.328;12.332;2023-07-09T04:17:33;8.73;;;5.65;;
77589;SDS011;66746;51.328;12.332;2023-07-09T04:19:59;6.60;;;4.72;;
77589;SDS011;66746;51.328;12.332;2023-07-09T04:22:26;5.93;;;4.80;;
77589;SDS011;66746;51.328;12.332;2023-07-09T04:24:52;6.07;;;5.45;;
77589;SDS011;66746;51.328;12.332;2023-07-09T04:27:19;6.32;;;5.72;;
77589;SDS011;66746;51.328;12.332;2023-07-09T04:29:47;6.93;;;5.85;;
77589;SDS011;66746;51.328;12.332;2023-07-09T04:32:14;7.20;;;6.05;;
77589;SDS011;66746;51.328;12.332;2023-07-09T04:34:41;8.57;;;5.13;;
77589;SDS011;66746;51.328;12.332;2023-07-09T04:37:08;9.10;;;5.78;;
77589;SDS011;66746;51.328;12.332;2023-07-09T04:39:36;7.43;;;5.53;;
77589;SDS011;66746;51.328;12.332;2023-07-09T04:42:02;9.23;;;6.22;;
77589;SDS011;66746;51.328;12.332;2023-07-09T04:44:29;6.25;;;5.15;;
77589;SDS011;66746;51.328;12.332;2023-07-09T04:46:57;7.18;;;5.75;;
77589;SDS011;66746;51.328;12.332;2023-07-09T04:49:23;8.60;;;5.20;;
77589;SDS011;66746;51.328;12.332;2023-07-09T04:51:50;7.78;;;6.40;;
77589;SDS011;66746;51.328;12.332;2023-07-09T04:54:16;8.88;;;5.82;;
77589;SDS011;66746;51.328;12.332;2023-07-09T04:56:43;6.70;;;5.45;;
77589;SDS011;66746;51.328;12.332;2023-07-09T04:59:10;8.00;;;5.68;;
77589;SDS011;66746;51.328;12.332;2023-07-09T05:01:36;7.47;;;5.97;;
77589;SDS011;66746;51.328;12.332;2023-07-09T05:04:04;8.25;;;5.78;;
77589;SDS011;66746;51.328;12.332;2023-07-09T05:06:31;8.15;;;7.35;;
77589;SDS011;66746;51.328;12.332;2023-07-09T05:08:57;10.00;;;6.07;;
77589;SDS011;66746;51.328;12.332;2023-07-09T05:11:24;8.30;;;7.35;;
77589;SDS011;66746;51.328;12.332;2023-07-09T05:13:50;7.95;;;5.65;;
77589;SDS011;66746;51.328;12.332;2023-07-09T05:16:19;6.72;;;5.50;;
77589;SDS011;66746;51.328;12.332;2023-07-09T05:18:46;6.60;;;5.50;;
77589;SDS011;66746;51.328;12.332;2023-07-09T05:21:14;6.82;;;5.38;;
77589;SDS011;66746;51.328;12.332;2023-07-09T05:23:40;7.78;;;6.97;;
77589;SDS011;66746;51.328;12.332;2023-07-09T05:26:07;7.57;;;6.03;;
77589;SDS011;66746;51.328;12.332;2023-07-09T05:28:33;8.70;;;6.28;;
77589;SDS011;66746;51.328;12.332;2023-07-09T05:31:00;7.72;;;6.47;;
77589;SDS011;66746;51.328;12.332;2023-07-09T05:33:26;6.35;;;5.78;;
77589;SDS011;66746;51.328;12.332;2023-07-09T05:35:53;8.52;;;7.35;;
77589;SDS011;66746;51.328;12.332;2023-07-09T05:38:22;7.63;;;6.70;;
77589;SDS011;66746;51.328;12.332;2023-07-09T05:40:58;5.88;;;5.28;;
77589;SDS011;66746;51.328;12.332;2023-07-09T05:43:25;10.50;;;6.72;;
77589;SDS011;66746;51.328;12.332;2023-07-09T05:45:51;9.07;;;6.60;;
77589;SDS011;66746;51.328;12.332;2023-07-09T05:48:18;7.53;;;6.47;;
77589;SDS011;66746;51.328;12.332;2023-07-09T05:50:45;7.50;;;5.63;;
77589;SDS011;66746;51.328;12.332;2023-07-09T05:53:11;8.80;;;6.07;;
77589;SDS011;66746;51.328;12.332;2023-07-09T05:55:39;6.70;;;5.55;;
77589;SDS011;66746;51.328;12.332;2023-07-09T05:58:05;7.35;;;5.75;;
77589;SDS011;66746;51.328;12.332;2023-07-09T06:00:32;7.35;;;5.70;;
77589;SDS011;66746;51.328;12.332;2023-07-09T06:02:58;7.47;;;6.22;;
77589;SDS011;66746;51.328;12.332;2023-07-09T06:05:25;6.47;;;5.65;;
77589;SDS011;66746;51.328;12.332;2023-07-09T06:07:51;6.95;;;5.88;;
77589;SDS011;66746;51.328;12.332;2023-07-09T06:10:18;7.00;;;5.85;;
77589;SDS011;66746;51.328;12.332;2023-07-09T06:12:46;7.75;;;5.25;;
77589;SDS011;66746;51.328;12.332;2023-07-09T06:15:12;6.88;;;6.13;;
77589;SDS011;66746;51.328;12.332;2023-07-09T06:17:39;7.90;;;5.40;;
77589;SDS011;66746;51.328;12.332;2023-07-09T06:20:06;8.18;;;6.82;;
77589;SDS011;66746;51.328;12.332;2023-07-09T06:22:33;6.70;;;5.05;;
77589;SDS011;66746;51.328;12.332;2023-07-09T06:25:00;6.07;;;5.50;;
77589;SDS011;66746;51.328;12.332;2023-07-09T06:27:26;6.22;;;5.63;;
77589;SDS011;66746;51.328;12.332;2023-07-09T06:29:54;6.07;;;5.47;;
77589;SDS011;66746;51.328;12.332;2023-07-09T06:32:20;8.23;;;5.47;;
77589;SDS011;66746;51.328;12.332;2023-07-09T06:34:47;7.45;;;6.75;;
77589;SDS011;66746;51.328;12.332;2023-07-09T06:37:13;7.75;;;5.32;;
77589;SDS011;66746;51.328;12.332;2023-07-09T06:39:40;6.38;;;5.53;;
77589;SDS011;66746;51.328;12.332;2023-07-09T06:42:07;7.93;;;5.93;;
77589;SDS011;66746;51.328;12.332;2023-07-09T06:45:01;10.32;;;5.50;;
77589;SDS011;66746;51.328;12.332;2023-07-09T06:47:28;5.72;;;5.15;;
77589;SDS011;66746;51.328;12.332;2023-07-09T06:49:54;6.88;;;5.45;;
77589;SDS011;66746;51.328;12.332;2023-07-09T06:52:21;6.60;;;5.75;;
77589;SDS011;66746;51.328;12.332;2023-07-09T06:54:47;6.72;;;5.70;;
77589;SDS011;66746;51.328;12.332;2023-07-09T06:57:14;8.82;;;6.10;;
77589;SDS011;66746;51.328;12.332;2023-07-09T06:59:40;7.63;;;6.20;;
77589;SDS011;66746;51.328;12.332;2023-07-09T07:02:08;8.00;;;5.93;;
77589;SDS011;66746;51.328;12.332;2023-07-09T07:04:35;6.65;;;5.00;;
77589;SDS011;66746;51.328;12.332;2023-07-09T07:07:01;7.53;;;5.78;;
77589;SDS011;66746;51.328;12.332;2023-07-09T07:09:28;5.95;;;4.65;;
77589;SDS011;66746;51.328;12.332;2023-07-09T07:11:54;6.97;;;5.38;;
77589;SDS011;66746;51.328;12.332;2023-07-09T07:14:21;5.68;;;4.65;;
77589;SDS011;66746;51.328;12.332;2023-07-09T07:16:47;5.80;;;5.03;;
77589;SDS011;66746;51.328;12.332;2023-07-09T07:19:15;6.13;;;5.53;;
77589;SDS011;66746;51.328;12.332;2023-07-09T07:21:42;5.90;;;5.07;;
77589;SDS011;66746;51.328;12.332;2023-07-09T07:24:08;9.07;;;5.93;;
77589;SDS011;66746;51.328;12.332;2023-07-09T07:26:35;6.03;;;4.95;;
77589;SDS011;66746;51.328;12.332;2023-07-09T07:29:01;6.53;;;5.43;;
77589;SDS011;66746;51.328;12.332;2023-07-09T07:31:28;6.15;;;4.97;;
77589;SDS011;66746;51.328;12.332;2023-07-09T07:33:54;8.18;;;5.78;;
77589;SDS011;66746;51.328;12.332;2023-07-09T07:36:22;6.40;;;4.70;;
77589;SDS011;66746;51.328;12.332;2023-07-09T07:38:57;6.45;;;5.05;;
77589;SDS011;66746;51.328;12.332;2023-07-09T07:41:24;5.97;;;4.88;;
77589;SDS011;66746;51.328;12.332;2023-07-09T07:43:51;6.80;;;4.90;;
77589;SDS011;66746;51.328;12.332;2023-07-09T07:46:17;5.57;;;4.90;;
77589;SDS011;66746;51.328;12.332;2023-07-09T07:48:44;4.68;;;4.00;;
77589;SDS011;66746;51.328;12.332;2023-07-09T07:51:10;6.22;;;5.20;;
77589;SDS011;66746;51.328;12.332;2023-07-09T07:53:38;5.65;;;5.05;;
77589;SDS011;66746;51.328;12.332;2023-07-09T07:56:05;5.10;;;4.18;;
77589;SDS011;66746;51.328;12.332;2023-07-09T07:58:32;7.30;;;5.38;;
77589;SDS011;66746;51.328;12.332;2023-07-09T08:00:58;5.78;;;4.47;;
77589;SDS011;66746;51.328;12.332;2023-07-09T08:03:25;5.95;;;5.28;;
77589;SDS011;66746;51.328;12.332;2023-07-09T08:05:52;5.10;;;4.60;;
77589;SDS011;66746;51.328;12.332;2023-07-09T08:08:19;6.53;;;5.10;;
77589;SDS011;66746;51.328;12.332;2023-07-09T08:10:47;5.32;;;4.63;;
77589;SDS011;66746;51.328;12.332;2023-07-09T08:13:13;7.07;;;5.18;;
77589;SDS011;66746;51.328;12.332;2023-07-09T08:15:40;5.65;;;5.13;;
77589;SDS011;66746;51.328;12.332;2023-07-09T08:18:06;5.82;;;4.57;;
77589;SDS011;66746;51.328;12.332;2023-07-09T08:20:33;6.82;;;5.15;;
77589;SDS011;66746;51.328;12.332;2023-07-09T08:23:02;5.53;;;4.88;;
77589;SDS011;66746;51.328;12.332;2023-07-09T08:25:28;4.93;;;4.13;;
77589;SDS011;66746;51.328;12.332;2023-07-09T08:27:56;5.85;;;4.20;;
77589;SDS011;66746;51.328;12.332;2023-07-09T08:30:23;6.35;;;4.30;;
77589;SDS011;66746;51.328;12.332;2023-07-09T08:32:49;4.90;;;4.38;;
77589;SDS011;66746;51.328;12.332;2023-07-09T08:35:16;4.53;;;3.83;;
77589;SDS011;66746;51.328;12.332;2023-07-09T08:37:45;6.60;;;4.50;;
77589;SDS011;66746;51.328;12.332;2023-07-09T08:40:14;6.60;;;4.53;;
77589;SDS011;66746;51.328;12.332;2023-07-09T08:42:43;6.15;;;4.05;;
77589;SDS011;66746;51.328;12.332;2023-07-09T08:45:29;5.63;;;4.35;;
77589;SDS011;66746;51.328;12.332;2023-07-09T08:48:14;6.00;;;4.50;;
77589;SDS011;66746;51.328;12.332;2023-07-09T08:50:47;4.82;;;3.72;;
77589;SDS011;66746;51.328;12.332;2023-07-09T08:53:18;5.00;;;4.10;;
77589;SDS011;66746;51.328;12.332;2023-07-09T08:55:48;4.97;;;4.45;;
77589;SDS011;66746;51.328;12.332;2023-07-09T08:58:21;5.85;;;3.60;;
77589;SDS011;66746;51.328;12.332;2023-07-09T09:00:53;6.97;;;4.10;;
77589;SDS011;66746;51.328;12.332;2023-07-09T09:03:26;5.40;;;3.88;;
77589;SDS011;66746;51.328;12.332;2023-07-09T09:05:57;4.88;;;3.30;;
77589;SDS011;66746;51.328;12.332;2023-07-09T09:08:28;6.15;;;3.50;;
77589;SDS011;66746;51.328;12.332;2023-07-09T09:11:04;4.55;;;3.95;;
77589;SDS011;66746;51.328;12.332;2023-07-09T09:13:38;4.30;;;3.33;;
77589;SDS011;66746;51.328;12.332;2023-07-09T09:16:09;5.88;;;3.47;;
77589;SDS011;66746;51.328;12.332;2023-07-09T09:18:43;5.20;;;3.65;;
77589;SDS011;66746;51.328;12.332;2023-07-09T09:21:19;4.35;;;3.10;;
77589;SDS011;66746;51.328;12.332;2023-07-09T09:23:48;5.10;;;3.60;;
77589;SDS011;66746;51.328;12.332;2023-07-09T09:26:17;5.45;;;3.80;;
77589;SDS011;66746;51.328;12.332;2023-07-09T09:28:46;5.50;;;3.13;;
77589;SDS011;66746;51.328;12.332;2023-07-09T09:31:14;3.80;;;3.00;;
77589;SDS011;66746;51.328;12.332;2023-07-09T09:33:44;4.90;;;3.60;;
77589;SDS011;66746;51.328;12.332;2023-07-09T09:36:14;4.93;;;3.65;;
77589;SDS011;66746;51.328;12.332;2023-07-09T09:38:43;4.10;;;3.58;;
77589;SDS011;66746;51.328;12.332;2023-07-09T09:41:12;4.32;;;3.90;;
77589;SDS011;66746;51.328;12.332;2023-07-09T09:43:41;5.25;;;3.63;;
77589;SDS011;66746;51.328;12.332;2023-07-09T09:46:09;5.57;;;3.85;;
77589;SDS011;66746;51.328;12.332;2023-07-09T09:48:44;4.45;;;3.25;;
77589;SDS011;66746;51.328;12.332;2023-07-09T09:51:11;4.28;;;3.15;;
77589;SDS011;66746;51.328;12.332;2023-07-09T09:53:39;5.22;;;4.10;;
77589;SDS011;66746;51.328;12.332;2023-07-09T09:56:13;5.88;;;3.65;;
77589;SDS011;66746;51.328;12.332;2023-07-09T09:58:41;4.68;;;3.58;;
77589;SDS011;66746;51.328;12.332;2023-07-09T10:01:11;4.80;;;3.38;;
77589;SDS011;66746;51.328;12.332;2023-07-09T10:03:46;4.95;;;3.67;;
77589;SDS011;66746;51.328;12.332;2023-07-09T10:06:18;5.25;;;3.85;;
77589;SDS011;66746;51.328;12.332;2023-07-09T10:08:50;3.85;;;3.45;;
77589;SDS011;66746;51.328;12.332;2023-07-09T10:13:55;4.57;;;3.63;;
77589;SDS011;66746;51.328;12.332;2023-07-09T10:16:27;6.50;;;3.70;;
77589;SDS011;66746;51.328;12.332;2023-07-09T10:19:02;15.95;;;4.55;;
77589;SDS011;66746;51.328;12.332;2023-07-09T10:21:40;6.05;;;3.40;;
77589;SDS011;66746;51.328;12.332;2023-07-09T10:24:15;5.65;;;3.40;;
77589;SDS011;66746;51.328;12.332;2023-07-09T10:27:06;4.20;;;3.33;;
77589;SDS011;66746;51.328;12.332;2023-07-09T10:29:41;5.75;;;3.95;;
77589;SDS011;66746;51.328;12.332;2023-07-09T10:32:18;5.25;;;3.53;;
77589;SDS011;66746;51.328;12.332;2023-07-09T10:34:55;4.78;;;3.75;;
77589;SDS011;66746;51.328;12.332;2023-07-09T10:37:34;4.13;;;3.50;;
77589;SDS011;66746;51.328;12.332;2023-07-09T10:40:16;4.80;;;3.22;;
77589;SDS011;66746;51.328;12.332;2023-07-09T10:42:52;5.30;;;3.47;;
77589;SDS011;66746;51.328;12.332;2023-07-09T10:45:25;3.80;;;2.90;;
77589;SDS011;66746;51.328;12.332;2023-07-09T10:47:55;6.97;;;3.55;;
77589;SDS011;66746;51.328;12.332;2023-07-09T10:50:30;5.25;;;3.08;;
77589;SDS011;66746;51.328;12.332;2023-07-09T10:53:09;4.78;;;3.55;;
77589;SDS011;66746;51.328;12.332;2023-07-09T10:55:42;4.47;;;3.63;;
77589;SDS011;66746;51.328;12.332;2023-07-09T10:58:22;4.53;;;3.22;;
77589;SDS011;66746;51.328;12.332;2023-07-09T11:00:55;5.10;;;3.65;;
77589;SDS011;66746;51.328;12.332;2023-07-09T11:03:24;5.97;;;3.53;;
77589;SDS011;66746;51.328;12.332;2023-07-09T11:08:58;7.80;;;3.90;;
77589;SDS011;66746;51.328;12.332;2023-07-09T11:11:29;3.88;;;3.40;;
77589;SDS011;66746;51.328;12.332;2023-07-09T11:13:59;5.68;;;3.22;;
77589;SDS011;66746;51.328;12.332;2023-07-09T11:16:31;5.20;;;3.53;;
77589;SDS011;66746;51.328;12.332;2023-07-09T11:19:03;4.70;;;3.15;;
77589;SDS011;66746;51.328;12.332;2023-07-09T11:21:30;7.18;;;3.72;;
77589;SDS011;66746;51.328;12.332;2023-07-09T11:23:59;4.75;;;3.47;;
77589;SDS011;66746;51.328;12.332;2023-07-09T11:26:27;4.88;;;3.45;;
77589;SDS011;66746;51.328;12.332;2023-07-09T11:28:55;6.85;;;3.65;;
77589;SDS011;66746;51.328;12.332;2023-07-09T11:31:39;6.32;;;3.22;;
77589;SDS011;66746;51.328;12.332;2023-07-09T11:34:08;4.88;;;3.58;;
77589;SDS011;66746;51.328;12.332;2023-07-09T11:36:46;4.25;;;2.97;;
77589;SDS011;66746;51.328;12.332;2023-07-09T11:39:20;8.30;;;3.47;;
77589;SDS011;66746;51.328;12.332;2023-07-09T11:41:48;7.30;;;3.28;;
77589;SDS011;66746;51.328;12.332;2023-07-09T11:44:16;5.10;;;3.10;;
77589;SDS011;66746;51.328;12.332;2023-07-09T11:46:52;6.03;;;3.90;;
77589;SDS011;66746;51.328;12.332;2023-07-09T11:49:27;4.68;;;3.60;;
77589;SDS011;66746;51.328;12.332;2023-07-09T11:52:00;5.10;;;3.25;;
77589;SDS011;66746;51.328;12.332;2023-07-09T11:54:34;4.45;;;2.78;;
77589;SDS011;66746;51.328;12.332;2023-07-09T11:57:03;4.93;;;3.72;;
77589;SDS011;66746;51.328;12.332;2023-07-09T11:59:37;4.50;;;3.20;;
77589;SDS011;66746;51.328;12.332;2023-07-09T12:02:04;5.18;;;3.13;;
77589;SDS011;66746;51.328;12.332;2023-07-09T12:04:35;6.40;;;3.28;;
77589;SDS011;66746;51.328;12.332;2023-07-09T12:07:02;5.30;;;3.38;;
77589;SDS011;66746;51.328;12.332;2023-07-09T12:09:30;8.27;;;3.30;;
77589;SDS011;66746;51.328;12.332;2023-07-09T12:11:59;5.18;;;3.28;;
77589;SDS011;66746;51.328;12.332;2023-07-09T12:14:25;4.60;;;3.30;;
77589;SDS011;66746;51.328;12.332;2023-07-09T12:16:52;6.22;;;4.03;;
77589;SDS011;66746;51.328;12.332;2023-07-09T12:19:20;4.05;;;3.45;;
77589;SDS011;66746;51.328;12.332;2023-07-09T12:21:48;5.32;;;3.50;;
77589;SDS011;66746;51.328;12.332;2023-07-09T12:24:19;5.47;;;3.25;;
77589;SDS011;66746;51.328;12.332;2023-07-09T12:26:48;6.55;;;3.92;;
77589;SDS011;66746;51.328;12.332;2023-07-09T12:29:16;4.15;;;3.38;;
77589;SDS011;66746;51.328;12.332;2023-07-09T12:31:43;3.80;;;3.05;;
77589;SDS011;66746;51.328;12.332;2023-07-09T12:34:11;5.30;;;3.42;;
77589;SDS011;66746;51.328;12.332;2023-07-09T12:36:41;6.32;;;3.40;;
77589;SDS011;66746;51.328;12.332;2023-07-09T12:39:12;4.30;;;3.15;;
77589;SDS011;66746;51.328;12.332;2023-07-09T12:41:41;6.25;;;3.97;;
77589;SDS011;66746;51.328;12.332;2023-07-09T12:44:20;7.93;;;3.53;;
77589;SDS011;66746;51.328;12.332;2023-07-09T12:46:48;6.95;;;3.78;;
77589;SDS011;66746;51.328;12.332;2023-07-09T12:49:20;6.05;;;3.05;;
77589;SDS011;66746;51.328;12.332;2023-07-09T12:51:49;5.40;;;3.50;;
77589;SDS011;66746;51.328;12.332;2023-07-09T12:54:17;6.13;;;3.80;;
77589;SDS011;66746;51.328;12.332;2023-07-09T12:56:45;7.68;;;3.60;;
77589;SDS011;66746;51.328;12.332;2023-07-09T12:59:15;6.50;;;4.07;;
77589;SDS011;66746;51.328;12.332;2023-07-09T13:01:47;5.30;;;3.03;;
77589;SDS011;66746;51.328;12.332;2023-07-09T13:04:15;4.25;;;3.33;;
77589;SDS011;66746;51.328;12.332;2023-07-09T13:06:42;6.32;;;4.00;;
77589;SDS011;66746;51.328;12.332;2023-07-09T13:09:11;5.60;;;3.65;;
77589;SDS011;66746;51.328;12.332;2023-07-09T13:11:42;6.70;;;4.22;;
77589;SDS011;66746;51.328;12.332;2023-07-09T13:14:15;6.30;;;3.65;;
77589;SDS011;66746;51.328;12.332;2023-07-09T13:16:44;6.38;;;3.63;;
77589;SDS011;66746;51.328;12.332;2023-07-09T13:19:13;7.18;;;3.83;;
77589;SDS011;66746;51.328;12.332;2023-07-09T13:21:40;5.63;;;3.65;;
77589;SDS011;66746;51.328;12.332;2023-07-09T13:24:11;5.00;;;3.03;;
77589;SDS011;66746;51.328;12.332;2023-07-09T13:26:40;6.22;;;3.30;;
77589;SDS011;66746;51.328;12.332;2023-07-09T13:29:09;7.03;;;3.97;;
77589;SDS011;66746;51.328;12.332;2023-07-09T13:31:38;7.85;;;4.35;;
77589;SDS011;66746;51.328;12.332;2023-07-09T13:34:08;6.65;;;3.63;;
77589;SDS011;66746;51.328;12.332;2023-07-09T13:36:48;5.53;;;3.63;;
77589;SDS011;66746;51.328;12.332;2023-07-09T13:39:15;4.47;;;3.50;;
77589;SDS011;66746;51.328;12.332;2023-07-09T13:41:42;6.53;;;3.85;;
77589;SDS011;66746;51.328;12.332;2023-07-09T13:44:10;5.95;;;3.67;;
77589;SDS011;66746;51.328;12.332;2023-07-09T13:46:38;6.25;;;3.45;;
77589;SDS011;66746;51.328;12.332;2023-07-09T13:49:07;4.47;;;3.72;;
77589;SDS011;66746;51.328;12.332;2023-07-09T13:51:37;5.10;;;4.05;;
77589;SDS011;66746;51.328;12.332;2023-07-09T13:54:06;6.55;;;3.38;;
77589;SDS011;66746;51.328;12.332;2023-07-09T13:56:40;4.55;;;3.40;;
77589;SDS011;66746;51.328;12.332;2023-07-09T13:59:11;6.97;;;4.07;;
77589;SDS011;66746;51.328;12.332;2023-07-09T14:01:39;4.82;;;3.97;;
77589;SDS011;66746;51.328;12.332;2023-07-09T14:04:08;7.82;;;3.88;;
77589;SDS011;66746;51.328;12.332;2023-07-09T14:06:37;4.57;;;3.33;;
77589;SDS011;66746;51.328;12.332;2023-07-09T14:09:04;7.00;;;3.30;;
77589;SDS011;66746;51.328;12.332;2023-07-09T14:11:30;5.18;;;4.18;;
77589;SDS011;66746;51.328;12.332;2023-07-09T14:13:57;5.30;;;3.53;;
77589;SDS011;66746;51.328;12.332;2023-07-09T14:16:24;6.65;;;3.70;;
77589;SDS011;66746;51.328;12.332;2023-07-09T14:18:50;5.53;;;3.75;;
77589;SDS011;66746;51.328;12.332;2023-07-09T14:21:18;4.80;;;3.35;;
77589;SDS011;66746;51.328;12.332;2023-07-09T14:23:50;6.03;;;3.45;;
77589;SDS011;66746;51.328;12.332;2023-07-09T14:26:16;4.95;;;2.95;;
77589;SDS011;66746;51.328;12.332;2023-07-09T14:28:43;5.18;;;4.00;;
77589;SDS011;66746;51.328;12.332;2023-07-09T14:31:13;6.57;;;3.60;;
77589;SDS011;66746;51.328;12.332;2023-07-09T14:33:46;6.05;;;3.45;;
77589;SDS011;66746;51.328;12.332;2023-07-09T14:36:12;8.15;;;4.20;;
77589;SDS011;66746;51.328;12.332;2023-07-09T14:38:39;6.00;;;3.45;;
77589;SDS011;66746;51.328;12.332;2023-07-09T14:41:13;6.15;;;3.50;;
77589;SDS011;66746;51.328;12.332;2023-07-09T14:43:53;4.63;;;3.10;;
77589;SDS011;66746;51.328;12.332;2023-07-09T14:46:23;5.07;;;3.53;;
77589;SDS011;66746;51.328;12.332;2023-07-09T14:48:49;6.30;;;4.57;;
77589;SDS011;66746;51.328;12.332;2023-07-09T14:51:16;7.50;;;4.05;;